Time;durP1;ratioP1;P1;durP2;ratioP2;P2;SDS_P1;SDS_P2;PMS_P1;PMS_P2;Temp;Humidity;BMP_temperature;BMP_pressure;BME280_temperature;BME280_humidity;BME280_pressure;Samples;Min_cycle;Max_cycle;Signal;HPM_P1;HPM_P2
2023/07/15 00:00:38;;;;;;;1.08;0.90;;;;;;;19.30;43.04;99199.78;10425900;28;20045;-59
2023/07/15 00:05:40;;;;;;;1.45;1.10;;;;;;;19.23;43.25;99194.31;10426695;28;20041;-59
2023/07/15 00:10:44;;;;;;;1.73;1.25;;;;;;;19.09;43.75;99194.97;10425283;28;20052;-59
2023/07/15 00:15:50;;;;;;;1.13;0.93;;;;;;;18.98;43.91;99200.53;10424194;28;20061;-60
2023/07/15 00:20:52;;;;;;;0.85;0.85;;;;;;;18.87;43.81;99198.19;10428239;28;20191;-62
2023/07/15 00:25:57;;;;;;;1.63;1.00;;;;;;;18.69;43.93;99201.97;10426222;28;20072;-59
2023/07/15 00:30:59;;;;;;;3.05;1.58;;;;;;;18.38;44.63;99201.66;10419870;28;20235;-59
2023/07/15 00:36:01;;;;;;;1.27;1.10;;;;;;;18.38;44.57;99204.31;10426559;28;20570;-59
2023/07/15 00:41:10;;;;;;;1.63;1.17;;;;;;;18.21;45.44;99199.91;10423401;28;20041;-59
2023/07/15 00:46:18;;;;;;;1.67;1.05;;;;;;;17.83;46.32;99196.66;10423817;28;20390;-59
2023/07/15 00:51:22;;;;;;;1.20;1.10;;;;;;;17.85;45.63;99199.19;10424461;28;20059;-59
2023/07/15 00:56:26;;;;;;;1.58;0.98;;;;;;;17.96;45.52;99198.06;10419491;28;20083;-59
2023/07/15 01:01:29;;;;;;;2.08;1.10;;;;;;;18.10;45.92;99192.19;10423155;28;20041;-59
2023/07/15 01:06:35;;;;;;;1.17;1.00;;;;;;;18.18;46.04;99189.63;10424710;28;20095;-59
2023/07/15 01:11:39;;;;;;;2.50;1.27;;;;;;;18.11;46.25;99197.34;10423912;28;20041;-59
2023/07/15 01:16:41;;;;;;;2.05;1.23;;;;;;;18.02;46.17;99194.81;10425841;28;20057;-59
2023/07/15 01:21:43;;;;;;;1.23;1.00;;;;;;;17.89;46.42;99186.47;10423569;28;20065;-59
2023/07/15 01:26:46;;;;;;;1.35;1.10;;;;;;;17.68;46.95;99190.31;10409333;28;20072;-59
2023/07/15 01:31:48;;;;;;;1.52;1.10;;;;;;;17.68;47.09;99189.47;10425243;28;20052;-59
2023/07/15 01:36:51;;;;;;;1.85;1.10;;;;;;;17.55;47.32;99184.56;10423677;28;20084;-59
2023/07/15 01:41:55;;;;;;;2.13;1.30;;;;;;;17.46;47.40;99185.50;10432648;28;20190;-59
2023/07/15 01:46:57;;;;;;;4.20;1.50;;;;;;;17.41;47.73;99184.28;10406038;28;20045;-59
2023/07/15 01:51:59;;;;;;;4.47;1.27;;;;;;;17.50;47.76;99184.22;10436852;28;20145;-59
2023/07/15 01:57:01;;;;;;;1.63;1.20;;;;;;;17.44;47.94;99184.84;10452440;28;20047;-59
2023/07/15 02:02:03;;;;;;;1.20;1.10;;;;;;;17.21;48.24;99178.31;10430170;28;20512;-59
2023/07/15 02:07:05;;;;;;;2.80;1.60;;;;;;;17.00;48.53;99175.97;10442651;28;20413;-59
2023/07/15 02:12:08;;;;;;;3.45;1.25;;;;;;;16.95;48.63;99166.84;10444371;28;20467;-59
2023/07/15 02:17:10;;;;;;;1.65;1.15;;;;;;;16.99;48.70;99162.91;10443471;28;20398;-59
2023/07/15 02:22:13;;;;;;;1.23;1.05;;;;;;;17.07;48.49;99159.50;10444458;28;20045;-59
2023/07/15 02:27:16;;;;;;;2.00;1.10;;;;;;;17.12;48.73;99152.78;10441684;28;20602;-59
2023/07/15 02:32:42;;;;;;;2.95;1.38;;;;;;;17.05;49.39;99149.09;10440539;28;20181;-59
2023/07/15 02:37:45;;;;;;;2.15;1.40;;;;;;;16.98;48.75;99148.03;10442702;28;20427;-59
2023/07/15 02:42:47;;;;;;;2.65;1.23;;;;;;;16.74;49.27;99143.34;10443111;28;20413;-59
2023/07/15 02:47:49;;;;;;;2.00;1.38;;;;;;;16.87;49.09;99143.00;10425484;28;20048;-59
2023/07/15 02:52:52;;;;;;;3.72;1.30;;;;;;;16.99;48.83;99147.91;10438399;28;20131;-59
2023/07/15 02:57:54;;;;;;;1.15;1.00;;;;;;;16.95;48.98;99140.44;10436732;28;20061;-59
2023/07/15 03:02:56;;;;;;;1.45;1.02;;;;;;;16.73;49.57;99138.22;10429645;28;20072;-59
2023/07/15 03:07:58;;;;;;;1.63;1.17;;;;;;;16.60;49.61;99135.09;10432456;28;20417;-58
2023/07/15 03:13:00;;;;;;;4.10;1.30;;;;;;;16.67;49.52;99141.47;10424977;28;20548;-58
2023/07/15 03:18:03;;;;;;;1.42;1.20;;;;;;;16.75;49.74;99131.78;10429045;28;20561;-59
2023/07/15 03:23:05;;;;;;;2.22;1.20;;;;;;;16.73;49.41;99136.41;10429515;28;20531;-59
2023/07/15 03:28:07;;;;;;;3.95;1.33;;;;;;;16.51;49.68;99138.66;10425686;28;20136;-59
2023/07/15 03:33:09;;;;;;;1.98;1.25;;;;;;;16.22;50.34;99142.22;10413999;28;20508;-59
2023/07/15 03:38:11;;;;;;;2.13;1.42;;;;;;;16.34;50.69;99145.53;10430409;28;20140;-59
2023/07/15 03:43:13;;;;;;;2.13;1.45;;;;;;;16.51;50.67;99144.75;10396177;28;20055;-59
2023/07/15 03:48:15;;;;;;;2.05;1.35;;;;;;;16.48;50.57;99165.34;10430721;28;20135;-59
2023/07/15 03:53:18;;;;;;;1.55;1.30;;;;;;;16.42;51.05;99168.53;10429242;28;20049;-59
2023/07/15 03:58:20;;;;;;;1.98;1.20;;;;;;;16.55;50.71;99171.69;10427712;28;20045;-58
2023/07/15 04:03:22;;;;;;;1.92;1.35;;;;;;;16.62;50.74;99175.38;10428602;28;20069;-59
2023/07/15 04:08:24;;;;;;;3.83;1.38;;;;;;;16.63;50.57;99177.88;10443846;28;20144;-59
2023/07/15 04:13:26;;;;;;;1.75;1.20;;;;;;;16.69;50.37;99173.84;10428502;28;20485;-59
2023/07/15 04:18:28;;;;;;;1.98;1.38;;;;;;;16.89;50.35;99164.81;10426124;28;20064;-59
2023/07/15 04:23:32;;;;;;;1.73;1.17;;;;;;;17.90;49.51;99169.59;10428607;28;20173;-59
2023/07/15 04:28:35;;;;;;;1.70;1.27;;;;;;;19.82;46.51;99156.03;10427044;28;20048;-59
2023/07/15 04:33:36;;;;;;;1.52;1.20;;;;;;;21.69;43.43;99137.03;10425834;28;20044;-59
2023/07/15 04:38:39;;;;;;;5.78;1.65;;;;;;;23.67;40.43;99128.53;10426513;28;20505;-59
2023/07/15 04:43:41;;;;;;;5.97;1.40;;;;;;;24.83;38.50;99123.19;10426206;28;20509;-60
2023/07/15 04:48:43;;;;;;;1.85;1.00;;;;;;;26.35;36.38;99114.88;10424305;28;21052;-60
2023/07/15 04:53:46;;;;;;;2.58;1.20;;;;;;;26.56;35.37;99112.78;10425971;28;20045;-60
2023/07/15 04:58:48;;;;;;;1.42;1.10;;;;;;;26.95;34.64;99103.69;10407026;28;20051;-60
2023/07/15 05:03:50;;;;;;;1.50;1.10;;;;;;;27.37;34.00;99113.72;10425894;28;20557;-61
2023/07/15 05:08:52;;;;;;;1.75;1.20;;;;;;;27.73;32.91;99104.94;10427604;28;20052;-60
2023/07/15 05:13:54;;;;;;;0.95;0.90;;;;;;;28.39;32.33;99110.44;10422641;28;20040;-60
2023/07/15 05:18:56;;;;;;;1.92;1.00;;;;;;;29.76;31.01;99091.41;10423055;28;20542;-60
2023/07/15 05:23:58;;;;;;;2.83;1.10;;;;;;;31.05;29.24;99088.13;10425057;28;20442;-60
2023/07/15 05:29:00;;;;;;;1.40;1.05;;;;;;;31.99;27.95;99079.94;10418275;28;20704;-60
2023/07/15 05:34:02;;;;;;;3.25;1.23;;;;;;;30.73;28.64;99082.41;10426838;28;20088;-60
2023/07/15 05:39:04;;;;;;;1.58;1.00;;;;;;;27.89;31.18;99098.97;10409716;28;20053;-60
2023/07/15 05:44:06;;;;;;;2.17;0.98;;;;;;;26.03;33.50;99097.06;10426971;28;20331;-60
2023/07/15 05:49:08;;;;;;;0.98;0.80;;;;;;;24.55;35.33;99087.69;10424640;28;20092;-60
2023/07/15 05:54:10;;;;;;;2.40;1.30;;;;;;;23.93;36.17;99091.31;10424870;28;20488;-60
2023/07/15 05:59:12;;;;;;;2.72;1.52;;;;;;;23.37;36.77;99087.00;10426408;28;20053;-60
2023/07/15 06:04:14;;;;;;;2.67;1.23;;;;;;;23.26;37.14;99098.19;10424732;28;20055;-60
2023/07/15 06:09:16;;;;;;;1.10;1.00;;;;;;;23.27;37.16;99102.50;10425261;28;20402;-59
2023/07/15 06:14:18;;;;;;;2.13;1.13;;;;;;;23.41;37.08;99093.63;10423586;28;20569;-59
2023/07/15 06:19:20;;;;;;;3.58;1.30;;;;;;;24.00;36.75;99089.47;10423956;28;20517;-59
2023/07/15 06:24:22;;;;;;;1.65;1.08;;;;;;;24.06;36.55;99098.56;10416587;28;20132;-59
2023/07/15 06:29:25;;;;;;;2.13;1.20;;;;;;;23.96;36.68;99090.91;10421298;28;20400;-60
2023/07/15 06:34:27;;;;;;;1.85;1.33;;;;;;;24.05;37.06;99091.56;10424354;28;20057;-60
2023/07/15 06:39:29;;;;;;;1.55;1.20;;;;;;;23.94;37.28;99095.59;10430195;28;20051;-60
2023/07/15 06:44:31;;;;;;;2.00;1.00;;;;;;;23.83;37.11;99098.00;10426614;28;20049;-59
2023/07/15 06:49:33;;;;;;;1.23;1.00;;;;;;;23.82;37.28;99096.38;10422021;28;20049;-60
2023/07/15 06:54:35;;;;;;;1.60;1.20;;;;;;;24.22;37.00;99095.59;10428736;28;20052;-60
2023/07/15 06:59:37;;;;;;;2.83;1.00;;;;;;;24.66;36.63;99097.78;10408689;28;20073;-59
2023/07/15 07:04:39;;;;;;;4.70;1.20;;;;;;;25.11;36.20;99094.41;10427246;28;20052;-60
2023/07/15 07:09:41;;;;;;;1.15;0.90;;;;;;;25.24;36.26;99105.16;10425905;28;20600;-60
2023/07/15 07:14:43;;;;;;;4.05;1.75;;;;;;;24.83;36.73;99123.19;10427421;28;20956;-60
2023/07/15 07:19:46;;;;;;;1.35;0.98;;;;;;;24.74;37.05;99119.03;10427883;28;20140;-60
2023/07/15 07:24:49;;;;;;;4.20;1.73;;;;;;;24.75;36.96;99124.19;10431040;28;20171;-60
2023/07/15 07:29:52;;;;;;;2.50;1.30;;;;;;;24.30;37.78;99135.50;10428854;28;20135;-60
2023/07/15 07:34:54;;;;;;;2.03;1.23;;;;;;;23.92;38.49;99140.38;10422509;28;20399;-60
2023/07/15 07:39:56;;;;;;;1.23;0.90;;;;;;;23.66;38.86;99156.22;10424188;28;20362;-60
2023/07/15 07:44:58;;;;;;;2.28;1.17;;;;;;;23.51;39.34;99176.84;10427997;28;20045;-60
2023/07/15 07:50:00;;;;;;;6.93;1.38;;;;;;;23.36;40.37;99187.56;10427771;28;20388;-60
2023/07/15 07:55:05;;;;;;;1.38;1.10;;;;;;;23.18;41.89;99199.69;10412556;28;20320;-59
2023/07/15 08:00:08;;;;;;;1.75;1.17;;;;;;;22.92;42.46;99189.59;10425615;28;20048;-59
2023/07/15 08:05:10;;;;;;;2.13;1.40;;;;;;;22.72;43.62;99179.66;10425132;28;20575;-59
2023/07/15 08:10:12;;;;;;;3.75;1.02;;;;;;;22.42;45.36;99171.69;10427216;28;20063;-59
2023/07/15 08:15:14;;;;;;;1.83;1.17;;;;;;;22.43;46.33;99177.88;10426045;28;20148;-59
2023/07/15 08:20:16;;;;;;;4.35;1.80;;;;;;;22.29;46.83;99195.50;10425126;28;20041;-59
2023/07/15 08:25:19;;;;;;;3.67;1.50;;;;;;;22.25;48.34;99207.53;10423124;28;20061;-59
2023/07/15 08:30:21;;;;;;;2.45;1.30;;;;;;;22.11;49.05;99227.00;10421622;28;21367;-59
2023/07/15 08:35:24;;;;;;;2.35;1.30;;;;;;;22.09;49.37;99270.81;10416589;28;20497;-59
2023/07/15 08:40:26;;;;;;;2.13;1.30;;;;;;;21.95;50.05;99261.72;10425747;28;20576;-59
2023/07/15 08:45:33;;;;;;;1.95;1.20;;;;;;;21.43;51.10;99216.44;10425496;28;20599;-60
2023/07/15 08:50:35;;;;;;;4.55;1.63;;;;;;;21.31;51.30;99230.28;10421911;28;20078;-59
2023/07/15 08:55:39;;;;;;;3.53;1.75;;;;;;;21.09;51.96;99200.84;10426281;28;20049;-59
2023/07/15 09:00:41;;;;;;;3.78;1.40;;;;;;;21.45;50.57;99198.47;10409805;28;20075;-59
2023/07/15 09:05:43;;;;;;;2.38;1.33;;;;;;;22.48;50.53;99218.94;10424016;28;20151;-59
2023/07/15 09:10:56;;;;;;;3.47;1.30;;;;;;;22.84;50.62;99204.84;10424129;28;20408;-59
2023/07/15 09:16:00;;;;;;;2.33;1.23;;;;;;;23.32;49.46;99214.81;10426633;28;20086;-59
2023/07/15 09:21:13;;;;;;;1.80;1.27;;;;;;;23.60;51.14;99249.59;10420939;28;20128;-59
2023/07/15 09:26:18;;;;;;;1.75;1.20;;;;;;;23.53;50.23;99283.44;10407569;28;20383;-59
2023/07/15 09:31:25;;;;;;;2.55;1.45;;;;;;;23.25;50.65;99292.13;10426280;28;20044;-59
2023/07/15 09:36:31;;;;;;;2.38;1.52;;;;;;;22.76;52.47;99285.75;10423920;28;20080;-59
2023/07/15 09:41:34;;;;;;;1.88;1.13;;;;;;;22.54;52.66;99284.81;10425590;28;20053;-60
2023/07/15 09:46:39;;;;;;;3.92;1.20;;;;;;;22.39;52.41;99269.84;10423413;28;20575;-59
2023/07/15 09:51:42;;;;;;;1.80;1.20;;;;;;;22.53;53.29;99277.84;10425125;28;20136;-59
2023/07/15 09:56:49;;;;;;;2.78;1.42;;;;;;;22.47;53.80;99259.09;10424224;28;20059;-59
2023/07/15 10:01:56;;;;;;;1.95;1.20;;;;;;;22.41;54.28;99231.31;10430021;28;20135;-60
2023/07/15 10:07:00;;;;;;;2.38;1.25;;;;;;;21.60;56.89;99162.06;10427999;28;20071;-59
2023/07/15 10:12:04;;;;;;;2.10;1.35;;;;;;;21.32;57.06;99198.22;10425077;28;20280;-59
2023/07/15 10:17:14;;;;;;;1.77;1.17;;;;;;;22.42;59.06;99262.28;10427118;28;20310;-59
2023/07/15 10:22:18;;;;;;;2.03;1.30;;;;;;;23.61;54.11;99244.09;10426866;28;20041;-59
2023/07/15 10:27:21;;;;;;;3.80;1.40;;;;;;;24.21;53.63;99240.88;10424104;28;20048;-59
2023/07/15 10:32:23;;;;;;;1.35;1.00;;;;;;;24.46;53.21;99231.41;10420722;28;20151;-59
2023/07/15 10:37:33;;;;;;;4.43;1.10;;;;;;;24.48;53.49;99224.00;10426374;28;20248;-60
2023/07/15 10:42:36;;;;;;;2.03;1.30;;;;;;;24.52;52.90;99243.97;10425718;28;20094;-60
2023/07/15 10:47:44;;;;;;;2.45;1.30;;;;;;;24.03;53.19;99219.16;10426554;28;20052;-60
2023/07/15 10:52:50;;;;;;;1.52;1.17;;;;;;;24.25;51.92;99232.28;10428857;28;20049;-59
2023/07/15 10:57:52;;;;;;;1.55;1.10;;;;;;;24.51;51.14;99220.13;10427588;28;20167;-60
2023/07/15 11:02:56;;;;;;;2.58;1.30;;;;;;;24.51;51.06;99206.75;10411684;28;20051;-59
2023/07/15 11:07:58;;;;;;;2.05;1.40;;;;;;;24.42;51.48;99211.44;10421516;28;20045;-59
2023/07/15 11:13:14;;;;;;;2.70;1.30;;;;;;;24.63;51.44;99205.16;10424976;28;20541;-59
2023/07/15 11:18:17;;;;;;;1.95;1.20;;;;;;;25.17;49.91;99192.59;10421162;28;20084;-60
2023/07/15 11:23:20;;;;;;;2.75;1.30;;;;;;;25.51;49.30;99178.28;10426040;28;20063;-59
2023/07/15 11:28:22;;;;;;;1.95;1.30;;;;;;;25.65;48.54;99156.63;10420490;28;20044;-59
2023/07/15 11:33:24;;;;;;;6.88;2.13;;;;;;;26.01;47.70;99150.88;10424942;28;20037;-60
2023/07/15 11:38:33;;;;;;;2.58;1.38;;;;;;;26.60;46.34;99156.91;10408885;28;20081;-60
2023/07/15 11:43:35;;;;;;;1.92;1.35;;;;;;;26.84;45.78;99138.41;10421896;28;20134;-59
2023/07/15 11:48:39;;;;;;;2.53;1.40;;;;;;;26.82;45.74;99138.63;10424526;28;20549;-59
2023/07/15 11:53:44;;;;;;;1.90;1.30;;;;;;;27.02;44.48;99146.56;10425157;28;20102;-60
2023/07/15 11:58:46;;;;;;;3.80;1.45;;;;;;;27.40;44.11;99132.06;10421409;28;20083;-60
2023/07/15 12:03:48;;;;;;;2.95;1.42;;;;;;;27.41;43.69;99136.41;10423032;28;20432;-60
2023/07/15 12:09:02;;;;;;;2.67;1.50;;;;;;;27.59;42.39;99138.31;10417286;28;20146;-60
2023/07/15 12:14:06;;;;;;;1.67;1.38;;;;;;;27.70;41.67;99110.75;10410675;28;20041;-60
2023/07/15 12:19:13;;;;;;;1.95;1.30;;;;;;;28.11;41.51;99105.59;10419856;28;20536;-60
2023/07/15 12:24:15;;;;;;;2.33;1.10;;;;;;;28.39;40.74;99088.94;10423505;28;20096;-60
2023/07/15 12:29:17;;;;;;;1.80;1.13;;;;;;;28.62;39.54;99088.22;10422058;28;20315;-60
2023/07/15 12:34:20;;;;;;;3.90;1.50;;;;;;;29.27;38.53;99072.97;10421500;28;20052;-60
2023/07/15 12:39:22;;;;;;;1.42;1.02;;;;;;;29.70;36.86;99065.41;10417507;28;20055;-60
2023/07/15 12:44:25;;;;;;;1.60;1.02;;;;;;;29.96;36.04;99067.63;10424423;28;20383;-60
2023/07/15 12:49:27;;;;;;;2.38;1.40;;;;;;;30.12;35.29;99074.97;10421994;28;20682;-60
2023/07/15 12:54:29;;;;;;;2.90;1.30;;;;;;;29.77;35.04;99084.97;10419997;28;20041;-60
2023/07/15 12:59:31;;;;;;;1.95;1.23;;;;;;;29.21;34.82;99076.59;10419964;28;20191;-60
2023/07/15 13:04:33;;;;;;;2.05;1.20;;;;;;;28.77;36.06;99059.00;10417658;28;20134;-60
2023/07/15 13:09:35;;;;;;;2.40;1.23;;;;;;;28.62;36.96;99078.28;10418633;28;20045;-60
2023/07/15 13:14:37;;;;;;;2.28;1.30;;;;;;;28.81;36.37;99074.47;10418754;28;20137;-60
2023/07/15 13:19:39;;;;;;;1.40;1.20;;;;;;;29.01;35.86;99093.06;10418917;28;20138;-60
2023/07/15 13:24:41;;;;;;;3.33;1.35;;;;;;;29.04;35.94;99085.34;10419637;28;20437;-60
2023/07/15 13:29:43;;;;;;;4.25;2.03;;;;;;;28.65;36.23;99093.13;10419127;28;20057;-60
2023/07/15 13:34:45;;;;;;;1.80;1.10;;;;;;;28.39;36.62;99117.69;10419782;28;20080;-60
2023/07/15 13:39:48;;;;;;;1.58;1.05;;;;;;;27.81;37.59;99090.41;10419887;28;20088;-60
2023/07/15 13:44:51;;;;;;;1.20;1.10;;;;;;;27.33;39.24;99096.41;10421151;28;20072;-60
2023/07/15 13:49:53;;;;;;;2.10;1.10;;;;;;;27.18;38.81;99068.22;10416149;28;20045;-60
2023/07/15 13:54:55;;;;;;;1.38;1.05;;;;;;;27.26;38.98;99039.25;10387654;28;20663;-60
2023/07/15 13:59:57;;;;;;;2.60;1.30;;;;;;;27.33;39.13;99001.59;10418877;28;20056;-60
2023/07/15 14:04:59;;;;;;;1.95;1.20;;;;;;;27.79;38.70;99031.50;10420417;28;20071;-59
2023/07/15 14:10:01;;;;;;;2.13;1.13;;;;;;;27.63;39.41;99104.59;10420214;28;20056;-60
2023/07/15 14:15:04;;;;;;;1.88;1.23;;;;;;;26.96;40.97;99148.25;10420355;28;20127;-59
2023/07/15 14:20:08;;;;;;;1.55;1.23;;;;;;;26.63;41.52;99156.47;10420270;28;20253;-60
2023/07/15 14:25:10;;;;;;;3.60;1.33;;;;;;;26.52;42.32;99148.25;10420973;28;20620;-60
2023/07/15 14:30:13;;;;;;;2.35;1.30;;;;;;;27.15;41.86;99150.03;10417670;28;20049;-59
2023/07/15 14:35:15;;;;;;;8.20;1.67;;;;;;;27.57;41.53;99161.88;10421798;28;20068;-60
2023/07/15 14:40:17;;;;;;;3.40;1.30;;;;;;;27.10;42.31;99179.34;10416911;28;20056;-59
2023/07/15 14:45:19;;;;;;;11.55;2.47;;;;;;;26.43;43.42;99173.63;10422897;28;20401;-60
2023/07/15 14:50:21;;;;;;;4.47;1.50;;;;;;;25.87;44.40;99179.50;10425818;28;20045;-60
2023/07/15 14:55:25;;;;;;;2.28;1.42;;;;;;;25.72;44.61;99154.78;10426292;28;20076;-60
2023/07/15 15:00:27;;;;;;;2.35;1.40;;;;;;;25.82;45.73;99179.31;10422719;28;20552;-60
2023/07/15 15:05:29;;;;;;;2.30;1.40;;;;;;;25.60;46.69;99207.31;10425995;28;20129;-60
2023/07/15 15:10:32;;;;;;;3.42;1.45;;;;;;;25.23;47.60;99226.59;10419530;28;20848;-60
2023/07/15 15:15:34;;;;;;;2.20;1.45;;;;;;;24.77;49.29;99220.28;10423515;28;20480;-59
2023/07/15 15:20:35;;;;;;;2.17;1.30;;;;;;;24.33;51.03;99179.72;10426030;28;20053;-59
2023/07/15 15:25:37;;;;;;;2.63;1.17;;;;;;;23.98;52.09;99197.56;10421305;28;20527;-60
2023/07/15 15:30:39;;;;;;;3.22;1.67;;;;;;;23.69;53.17;99198.56;10425646;28;20563;-59
2023/07/15 15:35:42;;;;;;;4.40;1.60;;;;;;;23.19;55.91;99196.00;10420908;28;20711;-59
2023/07/15 15:40:45;;;;;;;2.40;1.35;;;;;;;23.53;55.13;99177.50;10422561;28;20501;-60
2023/07/15 15:45:47;;;;;;;2.83;1.40;;;;;;;24.43;53.53;99169.50;10422194;28;20131;-60
2023/07/15 15:50:49;;;;;;;2.65;1.60;;;;;;;25.24;52.84;99189.94;10420006;28;20055;-59
2023/07/15 15:55:51;;;;;;;2.85;1.55;;;;;;;25.95;52.32;99231.22;10421656;28;20061;-59
2023/07/15 16:00:54;;;;;;;1.95;1.15;;;;;;;26.34;51.65;99201.72;10421570;28;20053;-60
2023/07/15 16:05:56;;;;;;;2.83;1.50;;;;;;;26.51;50.87;99170.72;10420921;28;20053;-60
2023/07/15 16:10:58;;;;;;;2.53;1.40;;;;;;;26.65;50.46;99162.44;10417339;28;20061;-60
2023/07/15 16:16:00;;;;;;;1.80;1.20;;;;;;;26.89;49.82;99158.22;10416868;28;20413;-60
2023/07/15 16:21:03;;;;;;;2.55;1.52;;;;;;;26.67;49.60;99144.28;10421561;28;20524;-60
2023/07/15 16:26:05;;;;;;;2.50;1.27;;;;;;;26.14;50.11;99144.66;10419426;28;20543;-60
2023/07/15 16:31:07;;;;;;;2.55;1.30;;;;;;;26.02;50.14;99147.16;10419803;28;20060;-60
2023/07/15 16:36:09;;;;;;;3.28;1.40;;;;;;;26.24;49.50;99153.09;10415239;28;20068;-60
2023/07/15 16:41:11;;;;;;;2.15;1.40;;;;;;;26.18;49.60;99170.81;10419832;28;20055;-60
2023/07/15 16:46:14;;;;;;;1.70;1.17;;;;;;;26.31;49.40;99165.44;10415944;28;20114;-60
2023/07/15 16:51:18;;;;;;;2.58;1.40;;;;;;;26.27;49.38;99158.00;10417956;28;20132;-59
2023/07/15 16:56:24;;;;;;;2.85;1.40;;;;;;;25.79;50.05;99147.56;10403449;28;20041;-59
2023/07/15 17:01:26;;;;;;;2.20;1.25;;;;;;;25.64;50.38;99149.66;10422120;28;20091;-59
2023/07/15 17:06:31;;;;;;;1.90;1.20;;;;;;;25.46;50.78;99129.88;10421729;28;20041;-60
2023/07/15 17:11:33;;;;;;;3.38;1.80;;;;;;;25.32;51.14;99094.22;10421870;28;20527;-60
2023/07/15 17:16:35;;;;;;;2.92;1.50;;;;;;;25.33;50.97;99109.25;10416124;28;20045;-59
2023/07/15 17:21:37;;;;;;;2.85;1.67;;;;;;;25.60;50.79;99100.22;10417413;28;20107;-59
2023/07/15 17:26:39;;;;;;;2.80;1.60;;;;;;;25.89;50.24;99098.94;10378804;28;20140;-60
2023/07/15 17:31:41;;;;;;;3.83;1.58;;;;;;;25.95;50.20;99110.66;10415996;28;20746;-60
2023/07/15 17:36:43;;;;;;;2.65;1.50;;;;;;;26.21;49.60;99098.03;10416534;28;20556;-60
2023/07/15 17:41:45;;;;;;;2.88;1.52;;;;;;;26.46;49.34;99108.88;10421322;28;20059;-60
2023/07/15 17:46:47;;;;;;;3.05;1.20;;;;;;;26.64;48.62;99114.38;10416293;28;20049;-60
2023/07/15 17:51:49;;;;;;;4.80;1.50;;;;;;;26.52;48.42;99113.38;10417482;28;20037;-60
2023/07/15 17:56:56;;;;;;;1.48;1.02;;;;;;;26.23;48.34;99130.81;10416453;28;21025;-59
2023/07/15 18:01:58;;;;;;;2.03;1.20;;;;;;;26.13;48.27;99126.91;10415995;28;20057;-60
2023/07/15 18:07:00;;;;;;;1.38;1.15;;;;;;;26.17;48.09;99133.50;10418097;28;20134;-60
2023/07/15 18:12:02;;;;;;;1.83;1.05;;;;;;;25.99;48.08;99114.59;10414873;28;20072;-60
2023/07/15 18:17:04;;;;;;;1.33;1.00;;;;;;;25.69;48.47;99120.38;10417149;28;20049;-60
2023/07/15 18:22:06;;;;;;;1.83;1.15;;;;;;;25.44;48.93;99132.78;10420719;28;20049;-60
2023/07/15 18:27:08;;;;;;;2.13;1.25;;;;;;;25.23;48.74;99134.75;10426195;28;20490;-59
2023/07/15 18:32:10;;;;;;;1.48;0.95;;;;;;;25.02;48.46;99123.22;10419927;28;20120;-60
2023/07/15 18:37:12;;;;;;;1.60;1.13;;;;;;;25.00;48.52;99140.50;10400943;28;20049;-60
2023/07/15 18:42:14;;;;;;;1.30;1.02;;;;;;;24.89;48.71;99159.81;10439757;28;20392;-59
2023/07/15 18:47:16;;;;;;;1.55;0.90;;;;;;;24.72;48.98;99166.53;10421007;28;20052;-60
2023/07/15 18:52:18;;;;;;;1.80;1.30;;;;;;;24.62;49.03;99153.53;10426924;28;20052;-60
2023/07/15 18:57:20;;;;;;;1.15;1.05;;;;;;;24.50;49.46;99159.66;10417841;28;20048;-59
2023/07/15 19:02:24;;;;;;;1.60;1.10;;;;;;;24.29;49.75;99176.59;10424317;28;20307;-60
2023/07/15 19:07:30;;;;;;;1.90;1.13;;;;;;;24.17;49.56;99179.00;10424461;28;20179;-60
2023/07/15 19:12:32;;;;;;;1.95;0.90;;;;;;;24.11;49.44;99185.13;10426293;28;20045;-60
2023/07/15 19:17:35;;;;;;;1.55;1.00;;;;;;;23.98;49.87;99190.34;10423231;28;20429;-60
2023/07/15 19:22:37;;;;;;;1.00;0.90;;;;;;;23.90;49.83;99195.84;10412092;28;20128;-60
2023/07/15 19:27:39;;;;;;;1.60;0.82;;;;;;;23.81;50.14;99188.19;10423907;28;20075;-60
2023/07/15 19:32:41;;;;;;;0.98;0.90;;;;;;;23.71;50.27;99182.34;10421159;28;20439;-59
2023/07/15 19:37:43;;;;;;;1.52;1.10;;;;;;;23.69;50.47;99200.41;10427765;28;20060;-59
2023/07/15 19:42:45;;;;;;;1.50;1.02;;;;;;;23.64;50.50;99192.97;10426894;28;20603;-59
2023/07/15 19:47:48;;;;;;;1.30;1.00;;;;;;;23.56;50.76;99189.59;10423982;28;20029;-59
2023/07/15 19:52:51;;;;;;;0.95;0.82;;;;;;;23.48;51.07;99217.25;10410761;28;20535;-59
2023/07/15 19:57:54;;;;;;;1.58;0.93;;;;;;;23.38;51.13;99227.41;10424693;28;20048;-59
2023/07/15 20:02:55;;;;;;;0.88;0.85;;;;;;;23.30;51.51;99251.53;10426647;28;20049;-59
2023/07/15 20:07:58;;;;;;;1.15;0.80;;;;;;;23.23;51.80;99286.13;10425720;28;20138;-59
2023/07/15 20:13:00;;;;;;;1.63;1.10;;;;;;;23.24;52.02;99285.16;10423554;28;20053;-59
2023/07/15 20:18:02;;;;;;;3.03;1.13;;;;;;;23.21;52.00;99264.16;10416365;28;20088;-59
2023/07/15 20:23:04;;;;;;;1.95;1.00;;;;;;;23.21;52.13;99263.31;10423591;28;20638;-59
2023/07/15 20:28:06;;;;;;;1.40;0.90;;;;;;;23.30;51.74;99249.69;10421825;28;20056;-59
2023/07/15 20:33:08;;;;;;;1.33;1.10;;;;;;;23.27;51.87;99254.56;10423996;28;20512;-59
2023/07/15 20:38:10;;;;;;;1.17;0.90;;;;;;;23.24;51.84;99246.97;10419295;28;20425;-59
2023/07/15 20:43:12;;;;;;;0.95;0.85;;;;;;;23.20;51.82;99230.50;10422972;28;20216;-59
2023/07/15 20:48:14;;;;;;;1.73;1.10;;;;;;;23.11;52.20;99236.97;10419360;28;20355;-59
2023/07/15 20:53:16;;;;;;;1.75;0.93;;;;;;;23.09;52.08;99249.66;10418643;28;20049;-60
2023/07/15 20:58:18;;;;;;;1.83;1.10;;;;;;;23.10;52.08;99248.66;10420161;28;20051;-59
2023/07/15 21:03:20;;;;;;;5.35;1.63;;;;;;;23.09;52.10;99243.50;10418473;28;20037;-59
2023/07/15 21:08:23;;;;;;;1.33;0.80;;;;;;;22.98;52.25;99260.84;10422438;28;20110;-59
2023/07/15 21:13:25;;;;;;;0.88;0.75;;;;;;;22.87;52.55;99245.28;10417915;28;20517;-59
2023/07/15 21:18:27;;;;;;;1.52;0.90;;;;;;;22.84;52.54;99251.00;10419285;28;20144;-59
2023/07/15 21:23:29;;;;;;;0.90;0.85;;;;;;;22.94;52.36;99240.06;10421057;28;20132;-59
2023/07/15 21:28:40;;;;;;;2.33;1.20;;;;;;;22.88;53.21;99232.81;10421077;28;20111;-59
2023/07/15 21:33:42;;;;;;;2.45;1.00;;;;;;;22.74;52.75;99244.31;10422318;28;20132;-59
2023/07/15 21:38:44;;;;;;;2.40;1.08;;;;;;;22.70;52.49;99244.63;10421632;28;20059;-59
2023/07/15 21:43:46;;;;;;;2.90;1.20;;;;;;;22.73;52.16;99242.63;10421842;28;20477;-59
2023/07/15 21:48:48;;;;;;;1.70;1.10;;;;;;;22.59;52.37;99230.97;10420863;28;20048;-59
2023/07/15 21:53:50;;;;;;;1.02;0.90;;;;;;;22.37;53.01;99262.00;10423420;28;20256;-59
2023/07/15 21:58:52;;;;;;;1.20;0.93;;;;;;;22.37;52.85;99285.19;10426330;28;20047;-59
2023/07/15 22:03:54;;;;;;;1.70;1.08;;;;;;;22.32;53.13;99283.06;10431278;28;20456;-59
2023/07/15 22:08:56;;;;;;;1.55;0.85;;;;;;;22.27;53.31;99303.25;10427288;28;20582;-59
2023/07/15 22:13:58;;;;;;;3.25;0.95;;;;;;;22.08;54.30;99291.28;10431023;28;20047;-60
2023/07/15 22:19:01;;;;;;;2.35;0.70;;;;;;;22.08;54.13;99291.28;10430348;28;20147;-59
2023/07/15 22:24:03;;;;;;;2.75;1.00;;;;;;;21.90;54.09;99298.72;10430164;28;20056;-59
2023/07/15 22:29:05;;;;;;;1.58;0.90;;;;;;;21.91;54.21;99356.28;10430080;28;20469;-59
2023/07/15 22:34:07;;;;;;;0.95;0.70;;;;;;;21.94;54.11;99374.59;10431150;28;20159;-59
2023/07/15 22:39:09;;;;;;;1.00;0.90;;;;;;;21.96;54.48;99364.59;10428068;28;20480;-60
2023/07/15 22:44:11;;;;;;;1.48;0.88;;;;;;;21.82;54.80;99315.56;10428628;28;20059;-59
2023/07/15 22:49:13;;;;;;;1.38;0.70;;;;;;;21.77;55.06;99261.22;10412370;28;20048;-59
2023/07/15 22:54:15;;;;;;;1.02;0.75;;;;;;;21.64;54.88;99256.50;10430673;28;20040;-59
2023/07/15 22:59:17;;;;;;;1.17;0.90;;;;;;;21.71;54.88;99312.50;10428573;28;20435;-60
2023/07/15 23:04:19;;;;;;;0.70;0.70;;;;;;;21.65;55.23;99361.13;10430024;28;20412;-59
2023/07/15 23:09:22;;;;;;;1.15;0.95;;;;;;;21.59;55.38;99353.84;10428290;28;20127;-59
2023/07/15 23:14:24;;;;;;;0.95;0.88;;;;;;;21.53;56.08;99405.09;10412414;28;20171;-59
2023/07/15 23:19:26;;;;;;;1.10;0.90;;;;;;;21.31;56.51;99437.75;10429812;28;20060;-59
2023/07/15 23:24:28;;;;;;;0.80;0.80;;;;;;;21.17;56.49;99441.94;10412969;28;20502;-59